Roaring Gap, NC (28668)

5:59 PM EDT on October 23, 2014 (GMT -0400)
High Country Lights | Change Station
CLOSE
Current Station
Personal Weather Station
Location: Ennice, NC
Elevation: 2871 ft
Nearby Weather Stations

Elev 2871 ft 36.51 °N, 80.95 °W | Updated 9 minutes ago

Clear
Clear
50.0 °F
Feels Like 46 °F
N
10.0
Wind Variable Wind from NNW
Gusts 24.0 mph

Today
High -- | Low -- °F
--% Chance of Precip.
Yesterday
High -- | Low -- °F
Precip. -- in
7:38 AM 6:37 PM
Waning Crescent, 0% visible
Pressure 30.06 in
Visibility 10.0 miles
Clouds Clear
Windchill 46 °F
Dew Point 41 °F
Humidity 71%
Rainfall 0.00 in
Snow Depth Not available.
UV 1 out of 12
Pollen 2.50 out of 12
Air Quality Not available.
Flu Activity Sporadic
METAR KUKF 232135Z AUTO 35006KT 10SM CLR 17/05 A3006 RMK AO2

More Conditions Fewer Conditions

Pressure 30.06 in
Visibility 10.0 miles
Clouds Clear
Windchill 46 °F
Dew Point 41 °F
Humidity 71%
Rainfall 0.00 in
Snow Depth Not available.
UV 1 out of 12
Pollen 2.50 out of 12
Air Quality Not available.
Flu Activity Sporadic
METAR KUKF 232135Z AUTO 35006KT 10SM CLR 17/05 A3006 RMK AO2

More Conditions Fewer Conditions

10-Day Weather Forecast

Almanac

Astronomy

Oct. 23, 2014 Rise Set
Actual Time 7:38 AM EDT 6:37 PM EDT
Civil Twilight 7:12 AM EDT 7:03 PM EDT
Nautical Twilight 6:42 AM EDT 7:33 PM EDT
Astronomical Twilight 6:12 AM EDT 8:03 PM EDT
Moon 7:17 AM EDT 6:38 PM EDT
Length of Visible Light 11h 51m
Length of Day
10h 59m
Tomorrow will be 2m 8s shorter.
Waning Crescent, 0% of the Moon is Illuminated
Today
Waning Crescent
Oct 30
First Quarter
Nov 6
Full
Nov 14
Last Quarter
Nov 22
New

Today's Extremes

State Highs State Lows

Community

WunderPhotos

Upload Photos

1,764,381 photos uploaded!

WunderBlogs® & News

Nearby

Snow Depth

Station Depth Elevation
No new snow has been reported.

Earthquake Activity

City Distance Mag. Time & Date
No recent earthquake activity has been reported nearby.
Minimum magnitude displayed is 2.5.

Coastal Water Temperatures

Place Temperature
No Stations Reporting

Nearby Weather Stations